レイキャビク/ケフラヴィーク の空港の天気 - METARとTAF

ケフラヴィーク国際空港 ( BIKF / KEF ) - アイスランド ケプラヴィーク
飛行場実況気象(Metar)
観測時間04/25 16:00 GMT (04/25 16:00 UTC)
風向・風速南西 9m/s
視程10km以上
天気現象
少しの雲 雲底高度 240m
全天を覆う雲 雲底高度 550m
気温6℃
湿度93%
気圧1025hPa
METARBIKF 251600Z 22017KT 9999 FEW008 OVC018 06/05 Q1025
過去の天気等 Google飛行場航空写真 Wunderground天気予報

過去48時間のMETAR

飛行場予報(TAF)
発表時間: 4/25 13:57 GMT (4/25 13:57 UTC)
予報対象時間: 25日15時 GMT ~ 26日15時 GMT
風向・風速南西 8m/s
視程8,000m
天気現象霧雨
少しの雲 雲底高度 300m
全天を覆う雲 雲底高度 400m
25日15時 GMT ~ 25日18時 GMT に徐々に
視程3,000m
天気現象霧雨 もや
全天を覆う雲 雲底高度 240m
26日13時 GMT ~ 26日15時 GMT に徐々に
視程10km以上
天気現象
全天の8割程度の雲 雲底高度 460m
TAF BIKF 251357Z 2515/2615 23015KT 8000 DZ FEW010 OVC013 TX08/2612Z TN04/2604Z
BECMG 2515/2518 3000 DZ BR OVC008
BECMG 2613/2615 9999 RA BKN015